sensor_id;sensor_type;location;lat;lon;timestamp;P1;durP1;ratioP1;P2;durP2;ratioP2
6101;SDS011;3081;50.584;7.032;2022-08-19T00:01:25;19.03;;;10.00;;
6101;SDS011;3081;50.584;7.032;2022-08-19T00:03:54;22.47;;;10.70;;
6101;SDS011;3081;50.584;7.032;2022-08-19T00:06:21;18.93;;;10.67;;
6101;SDS011;3081;50.584;7.032;2022-08-19T00:08:50;19.00;;;10.70;;
6101;SDS011;3081;50.584;7.032;2022-08-19T00:11:17;20.70;;;9.93;;
6101;SDS011;3081;50.584;7.032;2022-08-19T00:13:45;19.10;;;11.70;;
6101;SDS011;3081;50.584;7.032;2022-08-19T00:16:13;19.57;;;11.13;;
6101;SDS011;3081;50.584;7.032;2022-08-19T00:18:40;17.30;;;10.70;;
6101;SDS011;3081;50.584;7.032;2022-08-19T00:21:07;17.17;;;10.53;;
6101;SDS011;3081;50.584;7.032;2022-08-19T00:23:34;18.90;;;10.73;;
6101;SDS011;3081;50.584;7.032;2022-08-19T00:26:03;19.63;;;10.97;;
6101;SDS011;3081;50.584;7.032;2022-08-19T00:28:31;20.63;;;10.80;;
6101;SDS011;3081;50.584;7.032;2022-08-19T00:30:58;18.43;;;11.73;;
6101;SDS011;3081;50.584;7.032;2022-08-19T00:33:27;19.90;;;12.20;;
6101;SDS011;3081;50.584;7.032;2022-08-19T00:35:54;25.50;;;11.63;;
6101;SDS011;3081;50.584;7.032;2022-08-19T00:38:22;27.10;;;12.30;;
6101;SDS011;3081;50.584;7.032;2022-08-19T00:40:49;24.93;;;12.63;;
6101;SDS011;3081;50.584;7.032;2022-08-19T00:43:19;22.50;;;11.70;;
6101;SDS011;3081;50.584;7.032;2022-08-19T00:45:47;19.50;;;10.67;;
6101;SDS011;3081;50.584;7.032;2022-08-19T00:48:15;20.17;;;11.70;;
6101;SDS011;3081;50.584;7.032;2022-08-19T00:50:42;19.70;;;11.73;;
6101;SDS011;3081;50.584;7.032;2022-08-19T00:53:10;19.50;;;12.53;;
6101;SDS011;3081;50.584;7.032;2022-08-19T00:55:40;20.87;;;12.83;;
6101;SDS011;3081;50.584;7.032;2022-08-19T00:58:12;18.10;;;11.90;;
6101;SDS011;3081;50.584;7.032;2022-08-19T01:00:43;18.50;;;10.33;;
6101;SDS011;3081;50.584;7.032;2022-08-19T01:03:17;18.40;;;11.43;;
6101;SDS011;3081;50.584;7.032;2022-08-19T01:05:46;20.57;;;11.97;;
6101;SDS011;3081;50.584;7.032;2022-08-19T01:08:15;19.40;;;10.70;;
6101;SDS011;3081;50.584;7.032;2022-08-19T01:10:44;21.33;;;12.33;;
6101;SDS011;3081;50.584;7.032;2022-08-19T01:13:14;20.30;;;11.63;;
6101;SDS011;3081;50.584;7.032;2022-08-19T01:15:44;19.07;;;11.80;;
6101;SDS011;3081;50.584;7.032;2022-08-19T01:18:15;20.70;;;12.60;;
6101;SDS011;3081;50.584;7.032;2022-08-19T01:20:44;20.37;;;11.67;;
6101;SDS011;3081;50.584;7.032;2022-08-19T01:23:13;19.73;;;12.13;;
6101;SDS011;3081;50.584;7.032;2022-08-19T01:25:41;18.70;;;11.63;;
6101;SDS011;3081;50.584;7.032;2022-08-19T01:28:14;20.30;;;12.07;;
6101;SDS011;3081;50.584;7.032;2022-08-19T01:30:43;20.90;;;12.97;;
6101;SDS011;3081;50.584;7.032;2022-08-19T01:33:11;25.13;;;14.07;;
6101;SDS011;3081;50.584;7.032;2022-08-19T01:35:38;21.00;;;12.63;;
6101;SDS011;3081;50.584;7.032;2022-08-19T01:38:06;28.57;;;13.20;;
6101;SDS011;3081;50.584;7.032;2022-08-19T01:40:37;19.60;;;13.23;;
6101;SDS011;3081;50.584;7.032;2022-08-19T01:43:07;21.07;;;13.30;;
6101;SDS011;3081;50.584;7.032;2022-08-19T01:45:35;21.50;;;13.60;;
6101;SDS011;3081;50.584;7.032;2022-08-19T01:48:05;18.87;;;12.23;;
6101;SDS011;3081;50.584;7.032;2022-08-19T01:50:32;20.00;;;12.93;;
6101;SDS011;3081;50.584;7.032;2022-08-19T01:53:01;18.27;;;12.30;;
6101;SDS011;3081;50.584;7.032;2022-08-19T01:55:29;23.77;;;12.50;;
6101;SDS011;3081;50.584;7.032;2022-08-19T01:57:58;20.30;;;10.60;;
6101;SDS011;3081;50.584;7.032;2022-08-19T02:00:29;22.47;;;13.80;;
6101;SDS011;3081;50.584;7.032;2022-08-19T02:02:57;20.97;;;13.67;;
6101;SDS011;3081;50.584;7.032;2022-08-19T02:05:26;21.30;;;13.43;;
6101;SDS011;3081;50.584;7.032;2022-08-19T02:07:54;22.40;;;13.30;;
6101;SDS011;3081;50.584;7.032;2022-08-19T02:10:22;22.77;;;14.87;;
6101;SDS011;3081;50.584;7.032;2022-08-19T02:12:49;23.00;;;14.57;;
6101;SDS011;3081;50.584;7.032;2022-08-19T02:15:18;21.20;;;13.60;;
6101;SDS011;3081;50.584;7.032;2022-08-19T02:17:47;18.20;;;12.20;;
6101;SDS011;3081;50.584;7.032;2022-08-19T02:20:14;20.60;;;14.03;;
6101;SDS011;3081;50.584;7.032;2022-08-19T02:22:42;20.70;;;14.90;;
6101;SDS011;3081;50.584;7.032;2022-08-19T02:25:10;20.73;;;14.50;;
6101;SDS011;3081;50.584;7.032;2022-08-19T02:27:38;20.33;;;13.90;;
6101;SDS011;3081;50.584;7.032;2022-08-19T02:30:06;21.17;;;15.00;;
6101;SDS011;3081;50.584;7.032;2022-08-19T02:32:36;20.60;;;13.43;;
6101;SDS011;3081;50.584;7.032;2022-08-19T02:35:04;20.97;;;13.80;;
6101;SDS011;3081;50.584;7.032;2022-08-19T02:37:32;19.27;;;13.20;;
6101;SDS011;3081;50.584;7.032;2022-08-19T02:40:16;22.10;;;14.43;;
6101;SDS011;3081;50.584;7.032;2022-08-19T02:42:43;21.17;;;13.20;;
6101;SDS011;3081;50.584;7.032;2022-08-19T02:45:11;22.10;;;13.20;;
6101;SDS011;3081;50.584;7.032;2022-08-19T02:47:39;21.90;;;13.40;;
6101;SDS011;3081;50.584;7.032;2022-08-19T02:50:07;18.10;;;12.93;;
6101;SDS011;3081;50.584;7.032;2022-08-19T02:52:35;24.73;;;13.37;;
6101;SDS011;3081;50.584;7.032;2022-08-19T02:55:02;21.10;;;13.87;;
6101;SDS011;3081;50.584;7.032;2022-08-19T02:57:31;19.47;;;13.73;;
6101;SDS011;3081;50.584;7.032;2022-08-19T02:59:59;21.20;;;14.47;;
6101;SDS011;3081;50.584;7.032;2022-08-19T03:02:26;20.00;;;14.40;;
6101;SDS011;3081;50.584;7.032;2022-08-19T03:04:54;20.97;;;14.17;;
6101;SDS011;3081;50.584;7.032;2022-08-19T03:07:21;23.10;;;13.90;;
6101;SDS011;3081;50.584;7.032;2022-08-19T03:09:48;18.20;;;13.37;;
6101;SDS011;3081;50.584;7.032;2022-08-19T03:12:15;20.00;;;13.80;;
6101;SDS011;3081;50.584;7.032;2022-08-19T03:14:42;19.70;;;14.30;;
6101;SDS011;3081;50.584;7.032;2022-08-19T03:17:11;20.87;;;14.20;;
6101;SDS011;3081;50.584;7.032;2022-08-19T03:19:38;22.20;;;13.93;;
6101;SDS011;3081;50.584;7.032;2022-08-19T03:22:07;20.27;;;13.40;;
6101;SDS011;3081;50.584;7.032;2022-08-19T03:24:34;23.23;;;14.97;;
6101;SDS011;3081;50.584;7.032;2022-08-19T03:27:01;20.73;;;13.57;;
6101;SDS011;3081;50.584;7.032;2022-08-19T03:29:30;22.80;;;14.00;;
6101;SDS011;3081;50.584;7.032;2022-08-19T03:31:58;20.60;;;13.90;;
6101;SDS011;3081;50.584;7.032;2022-08-19T03:34:28;23.13;;;15.40;;
6101;SDS011;3081;50.584;7.032;2022-08-19T03:36:57;26.43;;;18.07;;
6101;SDS011;3081;50.584;7.032;2022-08-19T03:39:27;25.87;;;17.30;;
6101;SDS011;3081;50.584;7.032;2022-08-19T03:41:55;24.83;;;16.90;;
6101;SDS011;3081;50.584;7.032;2022-08-19T03:44:25;31.80;;;17.20;;
6101;SDS011;3081;50.584;7.032;2022-08-19T03:46:53;30.53;;;17.20;;
6101;SDS011;3081;50.584;7.032;2022-08-19T03:49:22;24.80;;;18.27;;
6101;SDS011;3081;50.584;7.032;2022-08-19T03:51:49;27.83;;;18.57;;
6101;SDS011;3081;50.584;7.032;2022-08-19T03:54:17;24.37;;;18.27;;
6101;SDS011;3081;50.584;7.032;2022-08-19T03:56:50;26.97;;;18.50;;
6101;SDS011;3081;50.584;7.032;2022-08-19T03:59:19;29.30;;;17.40;;
6101;SDS011;3081;50.584;7.032;2022-08-19T04:01:50;25.70;;;17.80;;
6101;SDS011;3081;50.584;7.032;2022-08-19T04:04:17;25.90;;;18.00;;
6101;SDS011;3081;50.584;7.032;2022-08-19T04:06:44;29.97;;;18.80;;
6101;SDS011;3081;50.584;7.032;2022-08-19T04:09:12;27.77;;;19.70;;
6101;SDS011;3081;50.584;7.032;2022-08-19T04:11:40;30.47;;;21.30;;
6101;SDS011;3081;50.584;7.032;2022-08-19T04:14:11;29.87;;;21.63;;
6101;SDS011;3081;50.584;7.032;2022-08-19T04:16:39;32.70;;;20.80;;
6101;SDS011;3081;50.584;7.032;2022-08-19T04:19:07;31.43;;;20.30;;
6101;SDS011;3081;50.584;7.032;2022-08-19T04:21:34;29.63;;;18.13;;
6101;SDS011;3081;50.584;7.032;2022-08-19T04:24:02;36.40;;;22.17;;
6101;SDS011;3081;50.584;7.032;2022-08-19T04:26:31;29.80;;;19.67;;
6101;SDS011;3081;50.584;7.032;2022-08-19T04:29:00;28.70;;;19.40;;
6101;SDS011;3081;50.584;7.032;2022-08-19T04:31:30;29.33;;;19.97;;
6101;SDS011;3081;50.584;7.032;2022-08-19T04:34:00;31.17;;;20.77;;
6101;SDS011;3081;50.584;7.032;2022-08-19T04:36:30;29.07;;;19.17;;
6101;SDS011;3081;50.584;7.032;2022-08-19T04:38:59;34.30;;;23.20;;
6101;SDS011;3081;50.584;7.032;2022-08-19T04:41:29;34.40;;;21.97;;
6101;SDS011;3081;50.584;7.032;2022-08-19T04:44:13;31.03;;;21.00;;
6101;SDS011;3081;50.584;7.032;2022-08-19T04:46:44;33.20;;;21.77;;
6101;SDS011;3081;50.584;7.032;2022-08-19T04:49:12;34.10;;;22.93;;
6101;SDS011;3081;50.584;7.032;2022-08-19T04:51:39;32.43;;;22.50;;
6101;SDS011;3081;50.584;7.032;2022-08-19T04:54:08;33.67;;;22.13;;
6101;SDS011;3081;50.584;7.032;2022-08-19T04:56:35;31.73;;;22.60;;
6101;SDS011;3081;50.584;7.032;2022-08-19T04:59:02;38.83;;;24.83;;
6101;SDS011;3081;50.584;7.032;2022-08-19T05:01:30;37.83;;;24.83;;
6101;SDS011;3081;50.584;7.032;2022-08-19T05:04:00;43.50;;;24.10;;
6101;SDS011;3081;50.584;7.032;2022-08-19T05:06:29;30.63;;;21.37;;
6101;SDS011;3081;50.584;7.032;2022-08-19T05:08:59;37.25;;;27.20;;
6101;SDS011;3081;50.584;7.032;2022-08-19T05:11:27;33.90;;;24.70;;
6101;SDS011;3081;50.584;7.032;2022-08-19T05:13:56;36.60;;;25.43;;
6101;SDS011;3081;50.584;7.032;2022-08-19T05:16:24;38.80;;;28.13;;
6101;SDS011;3081;50.584;7.032;2022-08-19T05:18:52;43.60;;;27.40;;
6101;SDS011;3081;50.584;7.032;2022-08-19T05:21:38;35.60;;;26.30;;
6101;SDS011;3081;50.584;7.032;2022-08-19T05:24:23;34.33;;;23.83;;
6101;SDS011;3081;50.584;7.032;2022-08-19T05:26:52;34.80;;;25.27;;
6101;SDS011;3081;50.584;7.032;2022-08-19T05:29:21;45.80;;;23.47;;
6101;SDS011;3081;50.584;7.032;2022-08-19T05:31:50;35.20;;;23.83;;
6101;SDS011;3081;50.584;7.032;2022-08-19T05:34:18;35.73;;;24.47;;
6101;SDS011;3081;50.584;7.032;2022-08-19T05:36:48;43.50;;;27.97;;
6101;SDS011;3081;50.584;7.032;2022-08-19T05:39:17;38.13;;;25.87;;
6101;SDS011;3081;50.584;7.032;2022-08-19T05:41:46;35.43;;;24.60;;
6101;SDS011;3081;50.584;7.032;2022-08-19T05:44:15;39.77;;;26.07;;
6101;SDS011;3081;50.584;7.032;2022-08-19T05:46:43;38.10;;;25.20;;
6101;SDS011;3081;50.584;7.032;2022-08-19T05:49:12;33.37;;;23.13;;
6101;SDS011;3081;50.584;7.032;2022-08-19T05:51:41;34.20;;;24.50;;
6101;SDS011;3081;50.584;7.032;2022-08-19T05:54:09;32.90;;;24.07;;
6101;SDS011;3081;50.584;7.032;2022-08-19T05:56:38;38.50;;;26.23;;
6101;SDS011;3081;50.584;7.032;2022-08-19T05:59:06;36.27;;;25.70;;
6101;SDS011;3081;50.584;7.032;2022-08-19T06:01:34;39.27;;;25.47;;
6101;SDS011;3081;50.584;7.032;2022-08-19T06:04:02;36.57;;;25.43;;
6101;SDS011;3081;50.584;7.032;2022-08-19T06:06:30;33.27;;;22.37;;
6101;SDS011;3081;50.584;7.032;2022-08-19T06:08:59;34.97;;;26.20;;
6101;SDS011;3081;50.584;7.032;2022-08-19T06:11:33;41.20;;;26.90;;
6101;SDS011;3081;50.584;7.032;2022-08-19T06:14:02;39.00;;;26.30;;
6101;SDS011;3081;50.584;7.032;2022-08-19T06:16:33;38.23;;;27.20;;
6101;SDS011;3081;50.584;7.032;2022-08-19T06:19:01;39.03;;;26.57;;
6101;SDS011;3081;50.584;7.032;2022-08-19T06:21:32;35.27;;;23.77;;
6101;SDS011;3081;50.584;7.032;2022-08-19T06:23:59;40.37;;;25.27;;
6101;SDS011;3081;50.584;7.032;2022-08-19T06:26:27;45.23;;;23.67;;
6101;SDS011;3081;50.584;7.032;2022-08-19T06:28:55;39.50;;;26.70;;
6101;SDS011;3081;50.584;7.032;2022-08-19T06:31:23;39.87;;;26.60;;
6101;SDS011;3081;50.584;7.032;2022-08-19T06:33:52;44.93;;;29.70;;
6101;SDS011;3081;50.584;7.032;2022-08-19T06:36:20;41.17;;;29.10;;
6101;SDS011;3081;50.584;7.032;2022-08-19T06:38:52;43.63;;;27.70;;
6101;SDS011;3081;50.584;7.032;2022-08-19T06:41:19;49.47;;;28.67;;
6101;SDS011;3081;50.584;7.032;2022-08-19T06:43:46;47.17;;;23.43;;
6101;SDS011;3081;50.584;7.032;2022-08-19T06:46:16;44.67;;;27.33;;
6101;SDS011;3081;50.584;7.032;2022-08-19T06:48:44;45.67;;;28.93;;
6101;SDS011;3081;50.584;7.032;2022-08-19T06:51:12;41.20;;;25.47;;
6101;SDS011;3081;50.584;7.032;2022-08-19T06:53:41;33.90;;;20.20;;
6101;SDS011;3081;50.584;7.032;2022-08-19T06:56:10;43.10;;;25.70;;
6101;SDS011;3081;50.584;7.032;2022-08-19T06:58:38;41.17;;;24.70;;
6101;SDS011;3081;50.584;7.032;2022-08-19T07:01:05;44.17;;;25.57;;
6101;SDS011;3081;50.584;7.032;2022-08-19T07:03:35;42.20;;;26.57;;
6101;SDS011;3081;50.584;7.032;2022-08-19T07:06:03;36.20;;;22.50;;
6101;SDS011;3081;50.584;7.032;2022-08-19T07:08:32;38.27;;;23.30;;
6101;SDS011;3081;50.584;7.032;2022-08-19T07:10:59;41.50;;;25.20;;
6101;SDS011;3081;50.584;7.032;2022-08-19T07:13:26;40.47;;;22.77;;
6101;SDS011;3081;50.584;7.032;2022-08-19T07:15:53;38.87;;;22.90;;
6101;SDS011;3081;50.584;7.032;2022-08-19T07:18:20;42.33;;;25.57;;
6101;SDS011;3081;50.584;7.032;2022-08-19T07:20:49;37.27;;;22.73;;
6101;SDS011;3081;50.584;7.032;2022-08-19T07:23:16;37.77;;;22.83;;
6101;SDS011;3081;50.584;7.032;2022-08-19T07:25:43;41.83;;;26.87;;
6101;SDS011;3081;50.584;7.032;2022-08-19T07:28:11;36.77;;;22.97;;
6101;SDS011;3081;50.584;7.032;2022-08-19T07:30:38;38.80;;;24.70;;
6101;SDS011;3081;50.584;7.032;2022-08-19T07:33:05;38.50;;;23.50;;
6101;SDS011;3081;50.584;7.032;2022-08-19T07:35:33;37.27;;;23.43;;
6101;SDS011;3081;50.584;7.032;2022-08-19T07:38:01;38.03;;;23.93;;
6101;SDS011;3081;50.584;7.032;2022-08-19T07:40:29;32.30;;;20.20;;
6101;SDS011;3081;50.584;7.032;2022-08-19T07:42:57;36.80;;;23.80;;
6101;SDS011;3081;50.584;7.032;2022-08-19T07:45:24;36.43;;;21.70;;
6101;SDS011;3081;50.584;7.032;2022-08-19T07:47:52;39.37;;;23.07;;
6101;SDS011;3081;50.584;7.032;2022-08-19T07:50:19;43.27;;;25.80;;
6101;SDS011;3081;50.584;7.032;2022-08-19T07:52:47;36.57;;;24.53;;
6101;SDS011;3081;50.584;7.032;2022-08-19T07:55:17;43.60;;;26.07;;
6101;SDS011;3081;50.584;7.032;2022-08-19T07:57:51;43.67;;;26.00;;
6101;SDS011;3081;50.584;7.032;2022-08-19T08:00:18;42.37;;;26.50;;
6101;SDS011;3081;50.584;7.032;2022-08-19T08:02:45;41.90;;;25.17;;
6101;SDS011;3081;50.584;7.032;2022-08-19T08:05:12;40.90;;;25.70;;
6101;SDS011;3081;50.584;7.032;2022-08-19T08:07:59;42.73;;;26.80;;
6101;SDS011;3081;50.584;7.032;2022-08-19T08:10:44;41.77;;;24.30;;
6101;SDS011;3081;50.584;7.032;2022-08-19T08:13:11;43.93;;;25.37;;
6101;SDS011;3081;50.584;7.032;2022-08-19T08:15:39;46.50;;;22.57;;
6101;SDS011;3081;50.584;7.032;2022-08-19T08:18:06;35.50;;;20.37;;
6101;SDS011;3081;50.584;7.032;2022-08-19T08:20:33;38.53;;;21.43;;
6101;SDS011;3081;50.584;7.032;2022-08-19T08:23:00;36.70;;;21.77;;
6101;SDS011;3081;50.584;7.032;2022-08-19T08:25:45;39.00;;;23.50;;
6101;SDS011;3081;50.584;7.032;2022-08-19T08:28:13;38.67;;;23.60;;
6101;SDS011;3081;50.584;7.032;2022-08-19T08:30:40;39.47;;;21.87;;
6101;SDS011;3081;50.584;7.032;2022-08-19T08:33:08;35.27;;;22.17;;
6101;SDS011;3081;50.584;7.032;2022-08-19T08:35:36;37.87;;;23.57;;
6101;SDS011;3081;50.584;7.032;2022-08-19T08:38:03;38.80;;;23.50;;
6101;SDS011;3081;50.584;7.032;2022-08-19T08:40:32;38.90;;;23.00;;
6101;SDS011;3081;50.584;7.032;2022-08-19T08:43:11;38.17;;;23.13;;
6101;SDS011;3081;50.584;7.032;2022-08-19T08:45:49;42.57;;;25.23;;
6101;SDS011;3081;50.584;7.032;2022-08-19T08:48:22;41.60;;;23.17;;
6101;SDS011;3081;50.584;7.032;2022-08-19T08:50:53;34.03;;;18.07;;
6101;SDS011;3081;50.584;7.032;2022-08-19T08:53:22;39.20;;;22.77;;
6101;SDS011;3081;50.584;7.032;2022-08-19T08:55:50;38.60;;;19.20;;
6101;SDS011;3081;50.584;7.032;2022-08-19T08:58:19;34.53;;;19.50;;
6101;SDS011;3081;50.584;7.032;2022-08-19T09:00:55;35.80;;;20.60;;
6101;SDS011;3081;50.584;7.032;2022-08-19T09:03:25;35.67;;;20.03;;
6101;SDS011;3081;50.584;7.032;2022-08-19T09:05:56;34.33;;;21.60;;
6101;SDS011;3081;50.584;7.032;2022-08-19T09:08:29;34.33;;;22.20;;
6101;SDS011;3081;50.584;7.032;2022-08-19T09:11:06;32.47;;;19.53;;
6101;SDS011;3081;50.584;7.032;2022-08-19T09:13:38;34.50;;;18.70;;
6101;SDS011;3081;50.584;7.032;2022-08-19T09:16:14;35.77;;;18.90;;
6101;SDS011;3081;50.584;7.032;2022-08-19T09:18:43;39.83;;;22.03;;
6101;SDS011;3081;50.584;7.032;2022-08-19T09:21:12;27.40;;;17.57;;
6101;SDS011;3081;50.584;7.032;2022-08-19T09:23:40;29.23;;;16.43;;
6101;SDS011;3081;50.584;7.032;2022-08-19T09:26:08;31.43;;;21.33;;
6101;SDS011;3081;50.584;7.032;2022-08-19T09:28:40;24.57;;;15.67;;
6101;SDS011;3081;50.584;7.032;2022-08-19T09:31:08;26.20;;;18.17;;
6101;SDS011;3081;50.584;7.032;2022-08-19T09:33:35;25.57;;;16.20;;
6101;SDS011;3081;50.584;7.032;2022-08-19T09:36:04;24.27;;;16.27;;
6101;SDS011;3081;50.584;7.032;2022-08-19T09:38:32;23.80;;;15.23;;
6101;SDS011;3081;50.584;7.032;2022-08-19T09:41:03;25.20;;;16.50;;
6101;SDS011;3081;50.584;7.032;2022-08-19T09:43:31;26.10;;;14.50;;
6101;SDS011;3081;50.584;7.032;2022-08-19T09:46:00;23.07;;;16.20;;
6101;SDS011;3081;50.584;7.032;2022-08-19T09:48:27;23.47;;;15.03;;
6101;SDS011;3081;50.584;7.032;2022-08-19T09:50:54;20.10;;;14.03;;
6101;SDS011;3081;50.584;7.032;2022-08-19T09:53:21;23.43;;;13.50;;
6101;SDS011;3081;50.584;7.032;2022-08-19T09:55:48;20.77;;;14.30;;
6101;SDS011;3081;50.584;7.032;2022-08-19T09:58:15;21.40;;;15.50;;
6101;SDS011;3081;50.584;7.032;2022-08-19T10:00:42;21.53;;;15.13;;
6101;SDS011;3081;50.584;7.032;2022-08-19T10:03:12;20.90;;;12.10;;
6101;SDS011;3081;50.584;7.032;2022-08-19T10:05:38;18.87;;;11.60;;
6101;SDS011;3081;50.584;7.032;2022-08-19T10:08:15;21.47;;;13.70;;
6101;SDS011;3081;50.584;7.032;2022-08-19T10:10:44;19.33;;;12.17;;
6101;SDS011;3081;50.584;7.032;2022-08-19T10:13:11;19.37;;;12.50;;
6101;SDS011;3081;50.584;7.032;2022-08-19T10:15:39;19.03;;;12.57;;
6101;SDS011;3081;50.584;7.032;2022-08-19T10:18:06;16.80;;;10.13;;
6101;SDS011;3081;50.584;7.032;2022-08-19T10:20:34;17.57;;;10.53;;
6101;SDS011;3081;50.584;7.032;2022-08-19T10:23:02;18.47;;;11.27;;
6101;SDS011;3081;50.584;7.032;2022-08-19T10:25:29;17.57;;;10.63;;
6101;SDS011;3081;50.584;7.032;2022-08-19T10:27:58;16.03;;;9.93;;
6101;SDS011;3081;50.584;7.032;2022-08-19T10:30:25;15.10;;;10.30;;
6101;SDS011;3081;50.584;7.032;2022-08-19T10:32:54;19.77;;;11.50;;
6101;SDS011;3081;50.584;7.032;2022-08-19T10:35:21;17.70;;;11.17;;
6101;SDS011;3081;50.584;7.032;2022-08-19T10:37:50;17.57;;;11.00;;
6101;SDS011;3081;50.584;7.032;2022-08-19T10:40:17;16.57;;;11.60;;
6101;SDS011;3081;50.584;7.032;2022-08-19T10:42:44;18.03;;;11.40;;
6101;SDS011;3081;50.584;7.032;2022-08-19T10:45:11;18.03;;;11.10;;
6101;SDS011;3081;50.584;7.032;2022-08-19T10:47:38;17.50;;;10.73;;
6101;SDS011;3081;50.584;7.032;2022-08-19T10:50:05;16.50;;;10.03;;
6101;SDS011;3081;50.584;7.032;2022-08-19T10:52:52;15.80;;;9.60;;
6101;SDS011;3081;50.584;7.032;2022-08-19T10:55:19;15.27;;;7.40;;
6101;SDS011;3081;50.584;7.032;2022-08-19T10:58:09;14.20;;;7.90;;
6101;SDS011;3081;50.584;7.032;2022-08-19T11:00:38;14.60;;;8.87;;
6101;SDS011;3081;50.584;7.032;2022-08-19T11:03:07;17.63;;;7.90;;
6101;SDS011;3081;50.584;7.032;2022-08-19T11:05:33;13.07;;;8.07;;
6101;SDS011;3081;50.584;7.032;2022-08-19T11:08:04;15.50;;;9.60;;
6101;SDS011;3081;50.584;7.032;2022-08-19T11:10:32;14.20;;;8.70;;
6101;SDS011;3081;50.584;7.032;2022-08-19T11:12:59;14.40;;;9.13;;
6101;SDS011;3081;50.584;7.032;2022-08-19T11:15:26;11.77;;;6.63;;
6101;SDS011;3081;50.584;7.032;2022-08-19T11:17:53;16.83;;;9.00;;
6101;SDS011;3081;50.584;7.032;2022-08-19T11:20:21;13.10;;;7.70;;
6101;SDS011;3081;50.584;7.032;2022-08-19T11:22:50;15.60;;;8.37;;
6101;SDS011;3081;50.584;7.032;2022-08-19T11:25:20;14.10;;;8.30;;
6101;SDS011;3081;50.584;7.032;2022-08-19T11:27:47;13.03;;;7.60;;
6101;SDS011;3081;50.584;7.032;2022-08-19T11:30:16;11.70;;;6.63;;
6101;SDS011;3081;50.584;7.032;2022-08-19T11:32:43;13.40;;;8.50;;
6101;SDS011;3081;50.584;7.032;2022-08-19T11:35:10;14.00;;;9.10;;
6101;SDS011;3081;50.584;7.032;2022-08-19T11:37:37;12.30;;;7.10;;
6101;SDS011;3081;50.584;7.032;2022-08-19T11:40:05;13.70;;;8.00;;
6101;SDS011;3081;50.584;7.032;2022-08-19T11:42:34;12.27;;;7.80;;
6101;SDS011;3081;50.584;7.032;2022-08-19T11:45:18;11.30;;;6.37;;
6101;SDS011;3081;50.584;7.032;2022-08-19T11:47:45;12.90;;;7.47;;
6101;SDS011;3081;50.584;7.032;2022-08-19T11:50:13;14.37;;;7.10;;
6101;SDS011;3081;50.584;7.032;2022-08-19T11:52:40;13.10;;;6.60;;
6101;SDS011;3081;50.584;7.032;2022-08-19T11:55:09;11.43;;;6.80;;
6101;SDS011;3081;50.584;7.032;2022-08-19T11:57:38;12.60;;;8.00;;
6101;SDS011;3081;50.584;7.032;2022-08-19T12:00:06;14.93;;;7.13;;
6101;SDS011;3081;50.584;7.032;2022-08-19T12:02:35;15.60;;;7.93;;
6101;SDS011;3081;50.584;7.032;2022-08-19T12:05:02;12.93;;;7.77;;
6101;SDS011;3081;50.584;7.032;2022-08-19T12:07:30;16.60;;;9.40;;
6101;SDS011;3081;50.584;7.032;2022-08-19T12:09:58;15.87;;;10.30;;
6101;SDS011;3081;50.584;7.032;2022-08-19T12:12:25;18.53;;;12.00;;
6101;SDS011;3081;50.584;7.032;2022-08-19T12:14:54;16.07;;;10.87;;
6101;SDS011;3081;50.584;7.032;2022-08-19T12:17:23;18.07;;;9.13;;
6101;SDS011;3081;50.584;7.032;2022-08-19T12:19:51;14.10;;;8.83;;
6101;SDS011;3081;50.584;7.032;2022-08-19T12:22:18;13.70;;;8.07;;
6101;SDS011;3081;50.584;7.032;2022-08-19T12:24:46;14.50;;;8.87;;
6101;SDS011;3081;50.584;7.032;2022-08-19T12:27:15;17.70;;;10.47;;
6101;SDS011;3081;50.584;7.032;2022-08-19T12:29:42;14.53;;;9.53;;
6101;SDS011;3081;50.584;7.032;2022-08-19T12:32:10;24.70;;;12.43;;
6101;SDS011;3081;50.584;7.032;2022-08-19T12:34:37;19.13;;;10.23;;
6101;SDS011;3081;50.584;7.032;2022-08-19T12:37:05;16.70;;;10.20;;
6101;SDS011;3081;50.584;7.032;2022-08-19T12:39:35;15.70;;;10.70;;
6101;SDS011;3081;50.584;7.032;2022-08-19T12:42:04;26.07;;;11.00;;
6101;SDS011;3081;50.584;7.032;2022-08-19T12:44:33;17.00;;;11.73;;
6101;SDS011;3081;50.584;7.032;2022-08-19T12:47:00;17.37;;;11.40;;
6101;SDS011;3081;50.584;7.032;2022-08-19T12:49:31;19.80;;;11.10;;
6101;SDS011;3081;50.584;7.032;2022-08-19T12:51:59;58.37;;;15.27;;
6101;SDS011;3081;50.584;7.032;2022-08-19T12:54:27;18.23;;;11.40;;
6101;SDS011;3081;50.584;7.032;2022-08-19T12:56:55;16.37;;;10.60;;
6101;SDS011;3081;50.584;7.032;2022-08-19T12:59:23;18.13;;;11.63;;
6101;SDS011;3081;50.584;7.032;2022-08-19T13:01:50;17.80;;;10.90;;
6101;SDS011;3081;50.584;7.032;2022-08-19T13:04:17;15.73;;;11.50;;
6101;SDS011;3081;50.584;7.032;2022-08-19T13:06:46;14.17;;;10.50;;
6101;SDS011;3081;50.584;7.032;2022-08-19T13:09:13;17.63;;;10.73;;
6101;SDS011;3081;50.584;7.032;2022-08-19T13:11:40;15.47;;;9.20;;
6101;SDS011;3081;50.584;7.032;2022-08-19T13:14:08;17.03;;;9.77;;
6101;SDS011;3081;50.584;7.032;2022-08-19T13:16:36;14.23;;;9.53;;
6101;SDS011;3081;50.584;7.032;2022-08-19T13:19:03;14.50;;;8.87;;
6101;SDS011;3081;50.584;7.032;2022-08-19T13:21:30;13.00;;;8.70;;
6101;SDS011;3081;50.584;7.032;2022-08-19T13:23:59;13.53;;;8.93;;
6101;SDS011;3081;50.584;7.032;2022-08-19T13:26:26;14.10;;;8.53;;
6101;SDS011;3081;50.584;7.032;2022-08-19T13:28:53;12.87;;;8.50;;
6101;SDS011;3081;50.584;7.032;2022-08-19T13:31:39;14.13;;;8.20;;
6101;SDS011;3081;50.584;7.032;2022-08-19T13:34:27;13.07;;;6.43;;
6101;SDS011;3081;50.584;7.032;2022-08-19T13:37:00;13.27;;;6.30;;
6101;SDS011;3081;50.584;7.032;2022-08-19T13:39:30;10.30;;;5.73;;
6101;SDS011;3081;50.584;7.032;2022-08-19T13:41:58;10.20;;;5.43;;
6101;SDS011;3081;50.584;7.032;2022-08-19T13:44:26;9.73;;;5.60;;
6101;SDS011;3081;50.584;7.032;2022-08-19T13:46:55;10.00;;;5.80;;
6101;SDS011;3081;50.584;7.032;2022-08-19T13:49:30;14.33;;;7.27;;
6101;SDS011;3081;50.584;7.032;2022-08-19T13:51:57;9.63;;;5.00;;
6101;SDS011;3081;50.584;7.032;2022-08-19T13:54:24;9.77;;;5.33;;
6101;SDS011;3081;50.584;7.032;2022-08-19T13:56:53;9.77;;;4.97;;
6101;SDS011;3081;50.584;7.032;2022-08-19T13:59:20;10.60;;;5.17;;
6101;SDS011;3081;50.584;7.032;2022-08-19T14:01:47;8.93;;;4.60;;
6101;SDS011;3081;50.584;7.032;2022-08-19T14:04:15;8.73;;;4.63;;
6101;SDS011;3081;50.584;7.032;2022-08-19T14:06:41;9.10;;;4.80;;
6101;SDS011;3081;50.584;7.032;2022-08-19T14:09:08;10.07;;;4.90;;
6101;SDS011;3081;50.584;7.032;2022-08-19T14:11:38;10.67;;;5.60;;
6101;SDS011;3081;50.584;7.032;2022-08-19T14:14:07;8.83;;;4.73;;
6101;SDS011;3081;50.584;7.032;2022-08-19T14:16:34;9.00;;;5.03;;
6101;SDS011;3081;50.584;7.032;2022-08-19T14:19:01;9.80;;;5.60;;
6101;SDS011;3081;50.584;7.032;2022-08-19T14:21:28;11.13;;;5.17;;
6101;SDS011;3081;50.584;7.032;2022-08-19T14:23:55;10.20;;;5.03;;
6101;SDS011;3081;50.584;7.032;2022-08-19T14:26:22;10.40;;;5.57;;
6101;SDS011;3081;50.584;7.032;2022-08-19T14:28:49;8.53;;;5.00;;
6101;SDS011;3081;50.584;7.032;2022-08-19T14:31:18;10.70;;;5.00;;
6101;SDS011;3081;50.584;7.032;2022-08-19T14:33:48;11.23;;;5.00;;
6101;SDS011;3081;50.584;7.032;2022-08-19T14:36:15;9.17;;;4.77;;
6101;SDS011;3081;50.584;7.032;2022-08-19T14:38:43;21.97;;;5.90;;
6101;SDS011;3081;50.584;7.032;2022-08-19T14:41:11;9.90;;;6.00;;
6101;SDS011;3081;50.584;7.032;2022-08-19T14:43:41;9.53;;;5.03;;
6101;SDS011;3081;50.584;7.032;2022-08-19T14:46:10;9.87;;;5.33;;
6101;SDS011;3081;50.584;7.032;2022-08-19T14:48:39;9.47;;;5.60;;
6101;SDS011;3081;50.584;7.032;2022-08-19T14:51:06;11.70;;;5.10;;
6101;SDS011;3081;50.584;7.032;2022-08-19T14:53:33;8.77;;;4.97;;
6101;SDS011;3081;50.584;7.032;2022-08-19T14:56:00;8.57;;;5.37;;
6101;SDS011;3081;50.584;7.032;2022-08-19T14:58:28;8.27;;;4.83;;
6101;SDS011;3081;50.584;7.032;2022-08-19T15:00:55;7.83;;;3.97;;